Time;durP1;ratioP1;P1;durP2;ratioP2;P2;SDS_P1;SDS_P2;PMS_P1;PMS_P2;Temp;Humidity;BMP_temperature;BMP_pressure;BME280_temperature;BME280_humidity;BME280_pressure;Samples;Min_cycle;Max_cycle;Signal;HPM_P1;HPM_P2
2022/06/17 00:02:04;;;;;;;;;;;19.60;55.80;;;18.80;53.17;96524.38;5034589;28;19932;-64
2022/06/17 00:04:29;;;;;;;;;;;19.50;56.30;;;18.73;53.96;96521.00;5010617;28;19929;-64
2022/06/17 00:07:00;;;;;;;;;;;19.50;57.10;;;18.70;54.34;96513.47;5009411;28;20425;-64
2022/06/17 00:09:27;;;;;;;;;;;19.40;57.00;;;18.63;53.89;96518.09;5019983;28;19946;-64
2022/06/17 00:11:53;;;;;;;;;;;19.30;57.50;;;18.59;54.56;96527.56;4982473;28;19960;-65
2022/06/17 00:14:21;;;;;;;;;;;19.30;57.90;;;18.53;54.25;96509.78;5014279;28;19975;-64
2022/06/17 00:16:48;;;;;;;;;;;19.20;58.10;;;18.49;54.99;96503.31;4998944;28;20015;-64
2022/06/17 00:19:13;;;;;;;;;;;19.20;57.70;;;18.44;54.12;96513.84;5011252;28;19913;-64
2022/06/17 00:21:43;;;;;;;;;;;19.10;57.50;;;18.33;54.69;96508.28;5002027;28;20250;-64
2022/06/17 00:24:12;;;;;;;;;;;19.10;58.00;;;18.38;55.30;96520.09;5001556;28;19979;-64
2022/06/17 00:26:38;;;;;;;;;;;19.10;58.40;;;18.31;54.63;96528.97;4994385;28;19917;-64
2022/06/17 00:29:03;;;;;;;;;;;19.10;58.20;;;18.27;55.36;96530.47;5010659;28;20012;-64
2022/06/17 00:31:29;;;;;;;;;;;19.00;58.80;;;18.22;55.52;96538.31;5030705;28;20405;-64
2022/06/17 00:33:54;;;;;;;;;;;19.00;58.80;;;18.16;55.95;96541.91;5017329;28;19917;-64
2022/06/17 00:36:20;;;;;;;;;;;18.90;59.10;;;18.13;55.93;96534.38;5009564;28;19925;-64
2022/06/17 00:38:46;;;;;;;;;;;18.90;59.30;;;18.09;55.57;96533.16;5016873;28;19963;-64
2022/06/17 00:41:13;;;;;;;;;;;18.80;59.30;;;18.04;56.09;96536.50;5021245;28;19939;-64
2022/06/17 00:43:40;;;;;;;;;;;18.80;59.80;;;17.98;56.88;96532.09;5022792;28;19921;-64
2022/06/17 00:46:16;;;;;;;;;;;18.70;60.00;;;17.93;56.19;96539.13;5006497;28;19928;-65
2022/06/17 00:49:03;;;;;;;;;;;18.70;60.40;;;17.88;57.22;96542.47;5021615;28;20280;-64
2022/06/17 00:51:30;;;;;;;;;;;18.60;60.80;;;17.83;57.48;96544.97;4997333;28;19956;-64
2022/06/17 00:54:13;;;;;;;;;;;18.60;61.20;;;17.76;56.97;96541.59;5010831;28;19917;-66
2022/06/17 00:56:39;;;;;;;;;;;18.50;61.40;;;17.69;58.20;96541.69;5010261;28;19917;-65
2022/06/17 00:59:15;;;;;;;;;;;18.40;61.80;;;17.64;58.27;96544.13;5006073;28;20599;-64
2022/06/17 01:01:51;;;;;;;;;;;18.40;61.90;;;17.60;57.72;96540.31;4985624;28;19920;-64
2022/06/17 01:04:20;;;;;;;;;;;18.40;62.00;;;17.55;58.75;96536.69;5022689;28;19945;-64
2022/06/17 01:06:51;;;;;;;;;;;18.30;62.10;;;17.52;58.52;96535.28;5022912;28;20110;-64
2022/06/17 01:12:09;;;;;;;;;;;18.30;62.20;;;17.46;58.62;96552.13;5021186;28;19984;-64
2022/06/17 01:14:34;;;;;;;;;;;18.30;62.10;;;17.44;58.54;96556.88;5019604;28;19921;-64
2022/06/17 01:17:00;;;;;;;;;;;18.30;62.30;;;17.40;58.94;96560.97;5009009;28;20379;-64
2022/06/17 01:19:57;;;;;;;;;;;18.20;62.50;;;17.36;58.85;96571.25;5019193;28;19963;-64
2022/06/17 01:22:52;;;;;;;;;;;18.20;62.90;;;17.35;58.99;96574.13;5015958;28;19972;-64
2022/06/17 01:25:31;;;;;;;;;;;18.20;62.40;;;17.31;58.67;96578.25;4996972;28;19928;-64
2022/06/17 01:27:58;;;;;;;;;;;18.20;62.10;;;17.30;58.54;96588.09;4999714;28;19925;-64
2022/06/17 01:30:31;;;;;;;;;;;18.10;62.00;;;17.27;59.21;96583.22;5012765;28;19918;-64
2022/06/17 01:33:02;;;;;;;;;;;18.10;62.20;;;17.25;58.82;96581.81;5000941;28;19921;-64
2022/06/17 01:35:32;;;;;;;;;;;18.10;62.20;;;17.21;59.08;96578.78;5024650;28;20353;-64
2022/06/17 01:37:57;;;;;;;;;;;18.10;62.40;;;17.18;59.14;96570.41;5023583;28;19918;-64
2022/06/17 01:40:24;;;;;;;;;;;18.00;62.60;;;17.14;59.57;96576.16;5022999;28;19923;-64
2022/06/17 01:42:50;;;;;;;;;;;18.00;62.80;;;17.10;59.30;96588.25;5019734;28;20372;-64
2022/06/17 01:45:15;;;;;;;;;;;17.90;63.00;;;17.07;59.68;96586.03;5026938;28;19928;-64
2022/06/17 01:47:42;;;;;;;;;;;17.90;63.00;;;17.02;59.67;96575.25;5010817;28;19932;-64
2022/06/17 01:50:14;;;;;;;;;;;17.80;63.30;;;17.02;59.59;96579.75;5014632;28;20280;-64
2022/06/17 01:52:53;;;;;;;;;;;17.80;63.50;;;16.99;59.84;96569.56;5014618;28;20051;-64
2022/06/17 01:55:22;;;;;;;;;;;17.80;63.50;;;16.94;60.36;96570.19;5001043;28;19921;-64
2022/06/17 01:58:06;;;;;;;;;;;17.70;63.80;;;16.89;60.16;96572.69;5016748;28;19983;-64
2022/06/17 02:00:32;;;;;;;;;;;17.70;63.90;;;16.86;59.91;96575.78;5018783;28;20348;-64
2022/06/17 02:03:01;;;;;;;;;;;17.70;63.90;;;16.83;60.60;96560.28;5012925;28;19928;-64
2022/06/17 02:05:27;;;;;;;;;;;17.70;64.00;;;16.79;60.40;96564.41;4986385;28;20014;-64
2022/06/17 02:07:54;;;;;;;;;;;17.60;63.90;;;16.76;60.78;96556.88;5020477;28;19917;-65
2022/06/17 02:10:21;;;;;;;;;;;17.60;64.10;;;16.72;60.71;96545.03;5037076;28;19947;-64
2022/06/17 02:12:47;;;;;;;;;;;17.60;64.10;;;16.68;59.68;96543.84;4997131;28;19941;-64
2022/06/17 02:15:12;;;;;;;;;;;17.50;63.40;;;16.66;60.12;96544.06;5014964;28;19917;-65
2022/06/17 02:17:41;;;;;;;;;;;17.50;63.70;;;16.63;60.35;96541.00;5028858;28;19917;-64
2022/06/17 02:20:08;;;;;;;;;;;17.50;63.40;;;16.61;60.23;96535.09;5001777;28;19921;-64
2022/06/17 02:22:35;;;;;;;;;;;17.50;63.30;;;16.59;59.74;96531.84;4998958;28;19920;-64
2022/06/17 02:25:04;;;;;;;;;;;17.50;62.70;;;16.56;59.22;96533.09;5003804;28;20816;-64
2022/06/17 02:27:30;;;;;;;;;;;17.40;62.90;;;16.56;60.07;96529.63;5020738;28;20003;-64
2022/06/17 02:29:55;;;;;;;;;;;17.40;63.00;;;16.53;59.47;96529.03;5013886;28;19973;-64
2022/06/17 02:32:21;;;;;;;;;;;17.30;63.10;;;16.47;59.80;96515.78;4995689;28;19917;-65
2022/06/17 02:34:59;;;;;;;;;;;17.30;62.80;;;16.46;60.33;96525.56;5005639;28;19917;-65
2022/06/17 02:37:24;;;;;;;;;;;17.30;63.20;;;16.44;59.92;96527.63;5012170;28;19916;-65
2022/06/17 02:39:50;;;;;;;;;;;17.30;63.30;;;16.41;60.24;96530.72;5014768;28;19922;-65
2022/06/17 02:42:27;;;;;;;;;;;17.30;63.50;;;16.37;60.51;96526.88;5011355;28;20016;-64
2022/06/17 02:44:57;;;;;;;;;;;17.20;63.50;;;16.34;60.75;96522.00;5023379;28;19928;-64
2022/06/17 02:47:23;;;;;;;;;;;17.10;63.50;;;16.31;60.25;96529.59;5013095;28;21363;-65
2022/06/17 02:49:48;;;;;;;;;;;17.10;63.70;;;16.27;60.37;96531.81;5028173;28;19917;-64
2022/06/17 02:52:20;;;;;;;;;;;17.10;63.70;;;16.23;60.41;96527.97;5010550;28;20004;-65
2022/06/17 02:54:51;;;;;;;;;;;17.10;64.20;;;16.20;60.64;96523.91;5045926;28;19921;-64
2022/06/17 02:57:20;;;;;;;;;;;17.00;64.30;;;16.16;61.48;96511.28;5018861;28;19925;-64
2022/06/17 02:59:51;;;;;;;;;;;17.00;64.30;;;16.13;60.96;96527.66;4970316;28;19965;-65
2022/06/17 03:02:31;;;;;;;;;;;17.00;64.60;;;16.09;61.54;96537.88;4994528;28;19925;-64
2022/06/17 03:04:57;;;;;;;;;;;16.90;64.80;;;16.07;62.38;96534.63;4979645;28;20004;-65
2022/06/17 03:07:23;;;;;;;;;;;17.00;65.10;;;16.05;61.75;96541.97;5012958;28;19921;-65
2022/06/17 03:09:48;;;;;;;;;;;17.00;65.30;;;16.04;62.60;96534.22;5014595;28;20002;-65
2022/06/17 03:12:21;;;;;;;;;;;17.00;65.30;;;16.02;62.57;96536.28;5035137;28;19933;-65
2022/06/17 03:15:00;;;;;;;;;;;16.90;65.20;;;15.98;61.28;96546.50;5011758;28;19999;-65
2022/06/17 03:17:26;;;;;;;;;;;16.90;65.20;;;15.96;61.48;96543.25;5023114;28;19917;-64
2022/06/17 03:19:53;;;;;;;;;;;16.90;65.20;;;15.94;61.87;96550.59;5039800;28;19917;-65
2022/06/17 03:22:18;;;;;;;;;;;16.90;65.40;;;15.95;61.89;96556.72;4991558;28;20627;-65
2022/06/17 03:25:11;;;;;;;;;;;16.90;65.20;;;15.92;62.43;96553.47;4997005;28;19921;-64
2022/06/17 03:27:59;;;;;;;;;;;16.80;65.30;;;15.91;62.05;96561.63;5010190;28;19959;-65
2022/06/17 03:30:28;;;;;;;;;;;16.80;65.20;;;15.88;62.13;96562.88;5020197;28;19924;-64
2022/06/17 03:32:59;;;;;;;;;;;16.80;65.10;;;15.88;63.18;96560.22;4993060;28;19921;-64
2022/06/17 03:35:25;;;;;;;;;;;16.80;65.10;;;15.85;61.29;96563.31;5023313;28;20307;-64
2022/06/17 03:37:57;;;;;;;;;;;16.80;64.60;;;15.84;62.40;96561.69;4988924;28;19925;-65
2022/06/17 03:40:26;;;;;;;;;;;16.70;65.20;;;15.80;61.94;96573.72;4996990;28;20252;-65
2022/06/17 03:43:11;;;;;;;;;;;16.70;65.40;;;15.78;61.99;96581.06;5027245;28;19925;-65
2022/06/17 03:45:49;;;;;;;;;;;16.70;65.50;;;15.72;62.38;96581.91;5017625;28;19916;-65
2022/06/17 03:48:32;;;;;;;;;;;16.60;65.70;;;15.69;62.97;96574.38;5013874;28;19917;-64
2022/06/17 03:50:58;;;;;;;;;;;16.60;66.10;;;15.63;63.03;96579.72;5008567;28;19921;-64
2022/06/17 03:53:36;;;;;;;;;;;16.50;66.50;;;15.57;63.30;96578.66;5023666;28;19984;-65
2022/06/17 03:56:05;;;;;;;;;;;16.40;67.30;;;15.51;63.83;96588.25;5005251;28;20396;-65
2022/06/17 03:58:30;;;;;;;;;;;16.40;67.80;;;15.45;65.04;96582.97;4986664;28;19943;-65
2022/06/17 04:01:24;;;;;;;;;;;16.40;67.70;;;15.44;65.20;96578.69;4997435;28;20392;-64
2022/06/17 04:03:51;;;;;;;;;;;16.40;67.80;;;15.41;65.54;96576.47;4966977;28;20015;-64
2022/06/17 04:06:21;;;;;;;;;;;16.40;68.00;;;15.40;64.90;96580.16;5026087;28;21558;-65
2022/06/17 04:08:54;;;;;;;;;;;16.40;67.90;;;15.39;64.95;96578.47;5006204;28;19941;-65
2022/06/17 04:11:19;;;;;;;;;;;16.40;68.10;;;15.39;64.81;96570.53;4980063;28;19940;-64
2022/06/17 04:13:45;;;;;;;;;;;16.50;68.00;;;15.40;64.24;96570.34;5026561;28;20307;-65
2022/06/17 04:16:23;;;;;;;;;;;16.50;67.50;;;15.45;65.81;96575.84;5023149;28;19921;-65
2022/06/17 04:18:49;;;;;;;;;;;16.60;67.30;;;15.48;65.27;96582.56;5053363;28;19925;-64
2022/06/17 04:21:14;;;;;;;;;;;16.60;67.20;;;15.50;65.40;96561.94;4998858;28;19996;-65
2022/06/17 04:23:40;;;;;;;;;;;16.60;67.20;;;15.53;65.02;96569.50;5007515;28;19932;-65
2022/06/17 04:26:21;;;;;;;;;;;16.60;66.60;;;15.53;64.38;96575.59;5019541;28;20313;-64
2022/06/17 04:28:49;;;;;;;;;;;16.70;66.80;;;15.54;64.54;96593.13;5038482;28;21370;-65
2022/06/17 04:31:20;;;;;;;;;;;16.70;66.50;;;15.58;64.25;96594.38;4980815;28;19918;-65
2022/06/17 04:34:01;;;;;;;;;;;16.70;66.40;;;15.61;64.36;96603.75;5002822;28;19964;-64
2022/06/17 04:36:35;;;;;;;;;;;16.70;66.70;;;15.65;64.78;96612.13;5008537;28;19993;-65
2022/06/17 04:39:14;;;;;;;;;;;16.80;66.20;;;15.66;63.27;96606.63;5020687;28;19949;-65
2022/06/17 04:41:40;;;;;;;;;;;16.80;65.60;;;15.71;63.70;96622.72;4982616;28;20386;-65
2022/06/17 04:44:05;;;;;;;;;;;16.90;65.10;;;15.74;63.74;96624.94;5022077;28;19925;-65
2022/06/17 04:46:41;;;;;;;;;;;16.90;64.60;;;15.78;62.56;96625.34;5022058;28;19940;-65
2022/06/17 04:49:11;;;;;;;;;;;17.00;64.20;;;15.81;62.35;96624.91;5008849;28;19932;-65
2022/06/17 04:51:36;;;;;;;;;;;17.00;64.10;;;15.84;62.21;96627.16;5028225;28;19925;-66
2022/06/17 04:54:05;;;;;;;;;;;17.10;63.90;;;15.86;61.61;96628.59;5018641;28;20054;-65
2022/06/17 04:56:36;;;;;;;;;;;17.10;63.00;;;15.88;61.90;96634.50;5018467;28;19937;-65
2022/06/17 04:59:24;;;;;;;;;;;17.10;62.60;;;15.93;61.09;96640.00;5000469;28;19957;-65
2022/06/17 05:01:50;;;;;;;;;;;17.10;62.00;;;15.95;61.27;96636.31;5031948;28;19921;-65
2022/06/17 05:04:15;;;;;;;;;;;17.10;62.60;;;16.00;61.24;96641.81;5011391;28;19928;-65
2022/06/17 05:06:41;;;;;;;;;;;17.10;62.10;;;16.03;61.15;96644.03;5034226;28;19917;-66
2022/06/17 05:09:20;;;;;;;;;;;17.20;62.10;;;16.07;61.08;96646.09;5010232;28;19928;-63
2022/06/17 05:11:46;;;;;;;;;;;17.30;62.10;;;16.13;62.22;96649.72;5023518;28;20007;-64
2022/06/17 05:14:46;;;;;;;;;;;17.30;62.60;;;16.18;61.40;96647.25;5002122;28;19921;-64
2022/06/17 05:17:11;;;;;;;;;;;17.40;61.80;;;16.22;61.65;96657.22;5016003;28;19967;-64
2022/06/17 05:19:37;;;;;;;;;;;17.60;61.80;;;16.30;61.39;96648.25;5016341;28;19924;-64
2022/06/17 05:22:03;;;;;;;;;;;17.60;61.70;;;16.35;61.41;96648.41;4999258;28;19921;-64
2022/06/17 05:24:29;;;;;;;;;;;17.70;61.50;;;16.43;61.67;96655.31;5014580;28;19917;-64
2022/06/17 05:26:55;;;;;;;;;;;17.90;61.60;;;16.52;61.32;96665.50;4998928;28;19917;-64
2022/06/17 05:29:21;;;;;;;;;;;17.90;61.50;;;16.57;61.38;96661.38;5022530;28;19925;-65
2022/06/17 05:31:49;;;;;;;;;;;18.00;60.90;;;16.68;61.17;96664.19;5013409;28;19940;-64
2022/06/17 05:34:15;;;;;;;;;;;18.10;61.20;;;16.78;60.84;96663.75;5040842;28;19916;-64
2022/06/17 05:36:41;;;;;;;;;;;18.20;60.60;;;16.84;60.13;96658.38;5017864;28;19923;-63
2022/06/17 05:39:07;;;;;;;;;;;18.40;59.90;;;16.96;60.65;96666.47;5023759;28;19983;-64
2022/06/17 05:41:32;;;;;;;;;;;18.50;59.50;;;17.09;61.03;96658.41;5014662;28;19939;-64
2022/06/17 05:43:58;;;;;;;;;;;18.70;59.90;;;17.20;60.18;96672.84;5032559;28;19925;-63
2022/06/17 05:46:23;;;;;;;;;;;18.90;59.30;;;17.35;60.40;96673.31;5021548;28;19929;-64
2022/06/17 05:48:49;;;;;;;;;;;19.10;58.70;;;17.49;60.23;96671.38;5025611;28;19925;-64
2022/06/17 05:51:15;;;;;;;;;;;19.30;58.80;;;17.65;60.57;96672.66;5016235;28;19923;-63
2022/06/17 05:53:40;;;;;;;;;;;19.40;58.90;;;17.80;61.18;96677.66;5032862;28;19921;-64
2022/06/17 05:56:06;;;;;;;;;;;19.60;58.70;;;17.90;58.81;96673.47;5030922;28;19921;-64
2022/06/17 05:58:32;;;;;;;;;;;19.60;56.70;;;18.04;59.26;96684.78;5040543;28;19917;-63
2022/06/17 06:00:57;;;;;;;;;;;19.80;57.60;;;18.15;59.80;96685.91;5003584;28;19923;-64
2022/06/17 06:03:25;;;;;;;;;;;20.00;57.40;;;18.31;59.30;96687.94;5032793;28;19966;-64
2022/06/17 06:05:50;;;;;;;;;;;20.10;56.40;;;18.45;58.12;96684.09;5025343;28;19978;-65
2022/06/17 06:08:16;;;;;;;;;;;20.40;55.80;;;18.60;57.44;96689.03;5019609;28;19921;-64
2022/06/17 06:10:43;;;;;;;;;;;20.60;54.50;;;18.78;57.75;96691.69;5021315;28;19926;-64
2022/06/17 06:13:14;;;;;;;;;;;20.80;55.00;;;18.94;57.41;96699.06;5023336;28;19921;-64
2022/06/17 06:15:40;;;;;;;;;;;20.90;54.30;;;19.12;56.61;96692.03;5015075;28;20008;-65
2022/06/17 06:18:07;;;;;;;;;;;21.10;53.50;;;19.31;56.10;96701.59;5017648;28;20036;-63
2022/06/17 06:20:32;;;;;;;;;;;21.30;52.80;;;19.45;56.16;96705.66;5010265;28;20039;-66
2022/06/17 06:22:58;;;;;;;;;;;21.40;52.30;;;19.62;55.84;96702.34;5012085;28;20320;-65
2022/06/17 06:25:24;;;;;;;;;;;21.60;52.60;;;19.72;55.28;96714.09;5007036;28;19921;-64
2022/06/17 06:27:50;;;;;;;;;;;21.60;51.60;;;19.77;54.81;96711.53;5012864;28;19921;-65
2022/06/17 06:30:20;;;;;;;;;;;21.60;51.70;;;19.88;55.98;96712.56;5037920;28;19917;-65
2022/06/17 06:32:50;;;;;;;;;;;21.80;51.60;;;19.97;54.90;96711.19;5036389;28;19917;-65
2022/06/17 06:35:16;;;;;;;;;;;21.90;51.70;;;20.02;55.23;96715.81;5002163;28;19925;-66
2022/06/17 06:37:42;;;;;;;;;;;22.00;51.50;;;20.10;54.60;96718.13;5028665;28;20342;-65
2022/06/17 06:40:08;;;;;;;;;;;22.10;50.80;;;20.19;56.10;96720.22;5023979;28;19918;-67
2022/06/17 06:42:34;;;;;;;;;;;22.30;51.70;;;20.31;54.93;96716.72;5025836;28;19921;-66
2022/06/17 06:45:00;;;;;;;;;;;22.40;50.40;;;20.37;54.78;96727.28;5024009;28;19963;-66
2022/06/17 06:47:25;;;;;;;;;;;22.50;50.20;;;20.45;55.18;96718.94;5042300;28;19932;-64
2022/06/17 06:49:51;;;;;;;;;;;22.60;50.20;;;20.58;53.69;96728.53;5048027;28;19924;-70
2022/06/17 06:52:17;;;;;;;;;;;22.80;49.20;;;20.71;52.96;96714.91;5028362;28;20315;-64
2022/06/17 06:54:42;;;;;;;;;;;23.00;48.50;;;20.86;53.70;96727.75;5042093;28;19916;-64
2022/06/17 06:57:09;;;;;;;;;;;23.30;48.00;;;20.97;52.44;96720.72;5032667;28;19921;-64
2022/06/17 06:59:36;;;;;;;;;;;23.20;47.40;;;21.07;53.96;96731.63;5007254;28;19924;-64
2022/06/17 07:02:01;;;;;;;;;;;23.60;48.40;;;21.21;53.21;96732.94;5026736;28;19923;-64
2022/06/17 07:04:27;;;;;;;;;;;23.80;46.80;;;21.32;53.19;96729.44;5035843;28;19929;-64
2022/06/17 07:06:52;;;;;;;;;;;23.90;47.50;;;21.43;51.92;96733.09;5043994;28;19917;-64
2022/06/17 07:09:20;;;;;;;;;;;24.10;46.40;;;21.52;52.82;96736.19;5021060;28;19925;-63
2022/06/17 07:11:46;;;;;;;;;;;24.20;46.80;;;21.63;52.31;96735.28;5015687;28;19917;-64
2022/06/17 07:14:11;;;;;;;;;;;24.50;45.70;;;21.73;51.71;96738.16;5019119;28;20241;-64
2022/06/17 07:16:37;;;;;;;;;;;24.50;45.40;;;21.83;51.32;96734.81;5032894;28;19917;-64
2022/06/17 07:19:07;;;;;;;;;;;24.60;44.40;;;21.94;51.97;96737.38;5015259;28;20307;-64
2022/06/17 07:21:33;;;;;;;;;;;24.80;44.90;;;22.08;52.70;96748.59;5044656;28;19917;-64
2022/06/17 07:23:58;;;;;;;;;;;25.00;45.80;;;22.19;51.07;96738.88;5025070;28;19988;-64
2022/06/17 07:26:25;;;;;;;;;;;25.10;44.30;;;22.31;49.42;96731.50;5020180;28;19917;-64
2022/06/17 07:28:54;;;;;;;;;;;25.10;43.20;;;22.39;50.42;96733.75;5021891;28;20447;-64
2022/06/17 07:31:21;;;;;;;;;;;25.20;43.70;;;22.49;51.59;96738.44;5044301;28;19932;-64
2022/06/17 07:33:47;;;;;;;;;;;25.50;44.50;;;22.55;49.98;96732.91;5028297;28;19917;-64
2022/06/17 07:41:43;;;;;;;;;;;25.80;43.10;;;22.93;49.54;96731.22;5035395;28;20319;-64
2022/06/17 07:44:09;;;;;;;;;;;26.00;41.80;;;23.05;49.57;96739.13;5023252;28;20027;-64
2022/06/17 07:46:35;;;;;;;;;;;26.10;42.60;;;23.14;49.56;96743.81;5036011;28;19916;-63
2022/06/17 07:49:00;;;;;;;;;;;26.20;42.00;;;23.25;49.50;96741.22;5037941;28;19923;-63
2022/06/17 07:51:27;;;;;;;;;;;26.10;41.90;;;23.35;48.85;96744.00;5039225;28;19940;-63
2022/06/17 07:53:52;;;;;;;;;;;26.30;41.40;;;23.45;48.51;96742.22;5036440;28;19920;-63
2022/06/17 07:56:20;;;;;;;;;;;26.60;41.20;;;23.67;50.36;96744.03;5010681;28;21861;-64
2022/06/17 07:58:46;;;;;;;;;;;27.00;43.10;;;23.82;48.23;96747.66;5010425;28;19916;-64
2022/06/17 08:01:12;;;;;;;;;;;27.00;41.10;;;23.91;47.62;96750.69;5032485;28;19917;-64
2022/06/17 08:03:37;;;;;;;;;;;27.10;40.00;;;24.10;46.59;96753.78;5016958;28;19928;-64
2022/06/17 08:06:03;;;;;;;;;;;27.30;39.20;;;24.25;48.23;96756.56;5023896;28;19917;-64
2022/06/17 08:08:29;;;;;;;;;;;27.50;40.60;;;24.38;47.98;96750.75;5039102;28;20391;-64
2022/06/17 08:10:57;;;;;;;;;;;27.50;40.40;;;24.51;45.43;96754.06;5026554;28;19916;-64
2022/06/17 08:13:22;;;;;;;;;;;27.60;38.10;;;24.54;47.17;96754.34;5025111;28;20008;-64
2022/06/17 08:15:49;;;;;;;;;;;27.60;39.70;;;24.68;46.13;96755.50;5032439;28;20342;-64
2022/06/17 08:18:15;;;;;;;;;;;27.80;38.20;;;24.85;47.52;96749.88;5021238;28;19923;-64
2022/06/17 08:20:41;;;;;;;;;;;28.10;39.40;;;24.97;45.91;96753.16;5005429;28;19925;-65
2022/06/17 08:23:07;;;;;;;;;;;27.90;38.60;;;25.15;45.59;96751.09;5030355;28;19925;-66
2022/06/17 08:25:33;;;;;;;;;;;28.10;38.20;;;25.31;46.60;96747.34;5037482;28;19925;-65
2022/06/17 08:28:02;;;;;;;;;;;28.30;39.10;;;25.45;45.73;96748.44;5007063;28;19967;-64
2022/06/17 08:30:34;;;;;;;;;;;28.60;38.30;;;25.59;46.07;96760.34;5031475;28;19939;-64
2022/06/17 08:32:59;;;;;;;;;;;28.60;38.50;;;25.70;44.76;96754.97;5025805;28;20307;-65
2022/06/17 08:35:28;;;;;;;;;;;28.70;36.90;;;25.83;45.83;96759.84;5037170;28;19916;-66
2022/06/17 08:38:00;;;;;;;;;;;29.10;38.20;;;25.99;43.50;96761.41;4983454;28;19955;-66
2022/06/17 08:40:44;;;;;;;;;;;29.30;35.50;;;26.18;42.68;96759.78;5002121;28;19922;-65
2022/06/17 08:43:34;;;;;;;;;;;29.50;34.70;;;26.38;43.26;96764.38;5001412;28;19982;-65
2022/06/17 08:46:15;;;;;;;;;;;29.70;35.30;;;26.53;43.92;96767.03;5025832;28;19939;-64
2022/06/17 08:48:55;;;;;;;;;;;29.80;35.10;;;26.69;43.56;96754.28;5030653;28;19921;-64
2022/06/17 08:51:33;;;;;;;;;;;29.80;35.40;;;26.91;42.31;96769.31;5011134;28;19995;-66
2022/06/17 08:54:22;;;;;;;;;;;29.90;34.20;;;27.06;41.70;96767.38;5041777;28;19939;-66
2022/06/17 08:57:06;;;;;;;;;;;30.00;33.70;;;27.31;42.38;96771.03;4992483;28;19971;-66
2022/06/17 09:00:07;;;;;;;;;;;30.10;34.30;;;27.59;41.95;96774.91;5026675;28;19922;-66
2022/06/17 09:02:56;;;;;;;;;;;30.30;33.80;;;27.80;41.41;96781.00;5020947;28;19929;-66
2022/06/17 09:05:40;;;;;;;;;;;30.40;33.90;;;28.12;41.89;96780.47;5043158;28;19929;-66
2022/06/17 09:08:43;;;;;;;;;;;31.00;35.10;;;28.29;41.55;96778.16;5048232;28;19924;-66
2022/06/17 09:11:12;;;;;;;;;;;30.80;34.20;;;28.42;40.07;96779.41;5027207;28;19934;-67
2022/06/17 09:13:54;;;;;;;;;;;30.90;32.70;;;28.47;40.32;96779.34;5027496;28;20303;-65
2022/06/17 09:16:41;;;;;;;;;;;31.00;33.70;;;28.71;40.87;96771.22;5022038;28;19963;-66
2022/06/17 09:19:07;;;;;;;;;;;31.40;34.00;;;28.86;40.29;96776.50;5026803;28;19951;-67
2022/06/17 09:21:37;;;;;;;;;;;31.60;33.50;;;29.09;39.97;96774.88;5020943;28;19956;-66
2022/06/17 09:24:08;;;;;;;;;;;31.80;33.40;;;29.29;39.59;96766.47;5058364;28;19925;-67
2022/06/17 09:26:39;;;;;;;;;;;32.10;32.40;;;29.47;38.98;96767.59;5022714;28;20315;-67
2022/06/17 09:29:14;;;;;;;;;;;32.10;31.60;;;29.67;39.30;96761.88;5027017;28;19921;-67
2022/06/17 09:31:49;;;;;;;;;;;32.50;32.30;;;29.94;38.52;96768.50;5019860;28;20007;-68
2022/06/17 09:34:25;;;;;;;;;;;32.90;31.50;;;30.11;38.52;96761.47;5035227;28;19917;-67
2022/06/17 09:36:56;;;;;;;;;;;32.90;31.30;;;30.21;37.32;96757.75;5016752;28;20295;-67
2022/06/17 09:39:41;;;;;;;;;;;32.90;30.40;;;30.39;36.79;96756.88;5015730;28;19965;-67
2022/06/17 09:42:19;;;;;;;;;;;33.30;29.10;;;30.59;37.33;96754.88;5001266;28;19921;-68
2022/06/17 09:44:49;;;;;;;;;;;33.60;29.30;;;30.75;36.43;96757.00;4991297;28;19921;-68
2022/06/17 09:47:20;;;;;;;;;;;33.60;28.90;;;30.79;37.00;96754.50;5021563;28;20007;-68
2022/06/17 09:50:09;;;;;;;;;;;33.50;29.90;;;30.96;37.60;96756.59;5037323;28;20391;-67
2022/06/17 09:53:27;;;;;;;;;;;34.00;30.10;;;31.17;35.92;96749.66;5036336;28;19916;-68
2022/06/17 09:55:57;;;;;;;;;;;34.30;27.90;;;31.37;33.92;96751.91;4995280;28;20296;-64
2022/06/17 09:58:30;;;;;;;;;;;34.40;26.20;;;31.52;35.27;96748.06;4996161;28;19983;-64
2022/06/17 10:00:56;;;;;;;;;;;34.80;27.40;;;31.68;34.89;96760.16;5039258;28;20045;-64
2022/06/17 10:03:35;;;;;;;;;;;34.90;24.50;;;31.85;34.87;96756.00;5005757;28;20020;-64
2022/06/17 10:06:23;;;;;;;;;;;35.40;26.50;;;32.13;34.19;96760.19;5020546;28;19958;-63
2022/06/17 10:08:55;;;;;;;;;;;35.80;25.50;;;32.41;32.24;96754.63;5020574;28;20365;-64
2022/06/17 10:11:29;;;;;;;;;;;36.00;23.40;;;32.74;33.14;96755.84;5012744;28;19931;-63
2022/06/17 10:14:25;;;;;;;;;;;36.40;23.90;;;33.13;32.73;96757.75;5019629;28;19917;-64
2022/06/17 10:20:07;;;;;;;;;;;36.90;23.50;;;33.85;32.11;96755.59;5044245;28;20349;-64
2022/06/17 10:23:01;;;;;;;;;;;37.30;24.00;;;34.07;32.18;96747.22;5043197;28;20422;-70
2022/06/17 10:25:35;;;;;;;;;;;37.40;24.20;;;34.34;31.47;96748.75;5046589;28;19928;-70
2022/06/17 10:28:39;;;;;;;;;;;37.60;22.80;;;34.65;31.72;96741.13;5026047;28;19924;-68
2022/06/17 10:31:28;;;;;;;;;;;38.20;23.00;;;35.04;31.28;96746.56;4990221;28;19924;-70
2022/06/17 10:33:55;;;;;;;;;;;38.40;22.90;;;35.39;30.55;96738.94;5029042;28;19917;-70
2022/06/17 10:36:20;;;;;;;;;;;39.00;22.20;;;35.76;30.76;96735.25;5007956;28;19923;-71
2022/06/17 10:38:46;;;;;;;;;;;39.20;22.30;;;36.06;30.14;96730.47;5024300;28;19946;-70
2022/06/17 10:41:12;;;;;;;;;;;39.60;21.30;;;36.29;30.09;96730.88;5022693;28;19921;-69
2022/06/17 10:43:43;;;;;;;;;;;39.60;22.50;;;36.63;28.52;96726.13;5009337;28;19928;-67
2022/06/17 10:46:19;;;;;;;;;;;39.80;20.40;;;36.81;29.20;96733.03;5018275;28;19974;-67
2022/06/17 10:48:50;;;;;;;;;;;39.80;21.00;;;37.01;28.75;96729.34;5019091;28;20272;-66
2022/06/17 10:51:16;;;;;;;;;;;40.00;20.10;;;37.16;29.28;96729.81;5029538;28;19917;-66
2022/06/17 10:53:54;;;;;;;;;;;40.00;21.50;;;37.45;29.09;96732.28;5011929;28;19939;-66
2022/06/17 10:56:22;;;;;;;;;;;40.20;21.60;;;37.69;28.35;96726.69;5025458;28;19918;-66
2022/06/17 10:59:02;;;;;;;;;;;40.20;20.60;;;37.73;27.35;96737.00;5017103;28;19943;-67
2022/06/17 11:01:45;;;;;;;;;;;39.80;20.20;;;37.82;28.12;96734.91;5012211;28;19921;-67
2022/06/17 11:04:15;;;;;;;;;;;40.00;21.20;;;37.93;26.10;96728.56;5033414;28;19951;-66
2022/06/17 11:06:52;;;;;;;;;;;39.90;20.60;;;38.02;26.83;96728.38;4997659;28;20288;-66
2022/06/17 11:09:24;;;;;;;;;;;39.60;20.30;;;38.11;27.19;96726.28;5018620;28;20007;-67
2022/06/17 11:12:04;;;;;;;;;;;39.80;20.30;;;38.12;28.33;96736.13;5002546;28;19928;-67
2022/06/17 11:14:33;;;;;;;;;;;39.80;21.80;;;38.17;26.97;96732.31;5010065;28;19926;-68
2022/06/17 11:16:59;;;;;;;;;;;39.70;20.80;;;38.26;26.96;96731.06;5034551;28;19952;-67
2022/06/17 11:19:25;;;;;;;;;;;39.80;20.50;;;38.37;25.93;96736.00;5002185;28;19917;-67
2022/06/17 11:21:53;;;;;;;;;;;40.10;19.60;;;38.51;25.94;96730.88;5008084;28;19933;-67
2022/06/17 11:24:24;;;;;;;;;;;40.10;19.00;;;38.63;26.47;96730.81;5020918;28;19921;-67
2022/06/17 11:27:24;;;;;;;;;;;40.50;20.10;;;38.84;25.54;96736.03;5012805;28;19921;-68
2022/06/17 11:29:51;;;;;;;;;;;40.50;19.80;;;38.86;25.10;96723.50;5017212;28;19928;-67
2022/06/17 11:32:20;;;;;;;;;;;40.40;18.70;;;38.76;25.84;96724.06;5003669;28;19970;-68
2022/06/17 11:34:50;;;;;;;;;;;40.30;18.80;;;38.97;25.32;96717.47;5024469;28;19917;-69
2022/06/17 11:37:18;;;;;;;;;;;40.60;18.70;;;39.03;24.66;96716.03;5022544;28;20007;-68
2022/06/17 11:39:44;;;;;;;;;;;40.50;18.70;;;39.05;24.88;96710.97;5009056;28;20269;-68
2022/06/17 11:42:22;;;;;;;;;;;40.60;19.10;;;39.21;25.46;96720.00;5023437;28;20421;-68
2022/06/17 11:44:52;;;;;;;;;;;40.60;19.60;;;39.39;24.25;96707.44;5009201;28;19927;-68
2022/06/17 11:47:19;;;;;;;;;;;41.00;18.60;;;39.53;25.09;96706.16;5007035;28;20296;-68